Time;durP1;ratioP1;P1;durP2;ratioP2;P2;SDS_P1;SDS_P2;PMS_P1;PMS_P2;Temp;Humidity;BMP_temperature;BMP_pressure;BME280_temperature;BME280_humidity;BME280_pressure;Samples;Min_cycle;Max_cycle;Signal;HPM_P1;HPM_P2
2022/04/20 00:00:30;;;;;;;16.30;8.52;;;;;;;12.32;52.01;101779.91;5129189;28;20431;-52
2022/04/20 00:03:03;;;;;;;12.05;9.13;;;;;;;12.31;52.20;101784.38;5138034;28;20859;-48
2022/04/20 00:05:36;;;;;;;14.57;8.57;;;;;;;12.31;52.10;101783.56;5134325;28;20923;-52
2022/04/20 00:08:10;;;;;;;11.73;7.90;;;;;;;12.26;52.08;101769.88;5136939;28;20905;-52
2022/04/20 00:10:42;;;;;;;13.70;8.43;;;;;;;12.28;52.06;101779.34;5138680;28;20607;-48
2022/04/20 00:13:14;;;;;;;12.43;8.15;;;;;;;12.27;52.27;101780.34;5138293;28;20435;-50
2022/04/20 00:15:47;;;;;;;12.48;8.30;;;;;;;12.26;52.30;101781.28;5123926;28;20440;-50
2022/04/20 00:18:19;;;;;;;11.25;8.25;;;;;;;12.26;52.45;101783.94;5135272;28;20431;-52
2022/04/20 00:20:52;;;;;;;10.95;8.30;;;;;;;12.22;52.29;101785.22;5137254;28;21019;-48
2022/04/20 00:23:26;;;;;;;13.85;8.45;;;;;;;12.21;52.49;101778.25;5132739;28;20429;-53
2022/04/20 00:25:58;;;;;;;11.63;8.07;;;;;;;12.20;52.51;101792.44;5137436;28;20504;-53
2022/04/20 00:28:31;;;;;;;10.85;7.30;;;;;;;12.16;52.46;101788.41;5135463;28;20443;-53
2022/04/20 00:31:04;;;;;;;12.45;8.57;;;;;;;11.88;52.57;101745.84;5136170;28;20435;-55
2022/04/20 00:33:37;;;;;;;12.93;8.00;;;;;;;12.07;52.72;101776.81;5136673;28;20963;-50
2022/04/20 00:36:10;;;;;;;11.60;8.55;;;;;;;12.12;52.43;101784.38;5139012;28;20433;-50
2022/04/20 00:38:44;;;;;;;13.40;8.00;;;;;;;12.04;52.76;101781.53;5133974;28;20449;-49
2022/04/20 00:41:16;;;;;;;12.27;8.25;;;;;;;12.05;52.92;101785.84;5134751;28;20550;-49
2022/04/20 00:43:49;;;;;;;14.43;8.35;;;;;;;12.00;52.88;101787.13;5140872;28;20890;-53
2022/04/20 00:46:22;;;;;;;11.30;7.78;;;;;;;11.94;52.80;101779.72;5134632;28;20541;-50
2022/04/20 00:48:56;;;;;;;12.00;7.82;;;;;;;11.79;52.75;101757.22;5135498;28;20468;-50
2022/04/20 00:51:30;;;;;;;11.32;8.02;;;;;;;11.93;53.01;101791.28;5132027;28;20503;-51
2022/04/20 00:54:04;;;;;;;10.88;7.43;;;;;;;11.90;53.01;101786.25;5134383;28;20427;-52
2022/04/20 00:56:36;;;;;;;9.50;7.43;;;;;;;11.86;53.07;101787.50;5130185;28;20533;-53
2022/04/20 00:59:10;;;;;;;11.45;7.00;;;;;;;11.82;53.01;101786.06;5134018;28;20415;-50
2022/04/20 01:01:42;;;;;;;15.93;7.72;;;;;;;11.76;53.33;101783.94;5132308;28;21478;-53
2022/04/20 01:04:15;;;;;;;11.77;7.30;;;;;;;11.74;52.89;101777.97;5132743;28;20439;-50
2022/04/20 01:06:49;;;;;;;10.52;6.80;;;;;;;11.80;53.17;101789.81;5137638;28;20416;-52
2022/04/20 01:09:23;;;;;;;13.50;7.33;;;;;;;11.72;53.22;101788.69;5134773;28;20836;-54
2022/04/20 01:11:57;;;;;;;8.93;7.53;;;;;;;11.71;53.29;101792.31;5133978;28;20478;-54
2022/04/20 01:14:29;;;;;;;12.73;7.60;;;;;;;11.65;53.15;101781.41;5131127;28;20411;-51
2022/04/20 01:17:02;;;;;;;9.48;7.30;;;;;;;11.65;53.45;101781.41;5135772;28;20516;-52
2022/04/20 01:19:35;;;;;;;9.57;6.90;;;;;;;11.64;53.27;101790.31;5132006;28;20558;-54
2022/04/20 01:22:10;;;;;;;10.85;6.85;;;;;;;11.60;53.32;101794.19;5136418;28;20426;-53
2022/04/20 01:24:42;;;;;;;8.88;6.50;;;;;;;11.59;53.44;101792.53;5136448;28;20431;-52
2022/04/20 01:27:15;;;;;;;8.75;6.68;;;;;;;11.53;53.42;101788.59;5130328;28;21043;-51
2022/04/20 01:29:52;;;;;;;10.10;7.30;;;;;;;11.51;53.61;101794.00;5134048;28;23242;-53
2022/04/20 01:32:25;;;;;;;9.45;6.47;;;;;;;11.49;53.35;101785.38;5135815;28;20456;-50
2022/04/20 01:34:58;;;;;;;9.57;6.72;;;;;;;11.49;53.48;101788.03;5130314;28;20567;-46
2022/04/20 01:37:32;;;;;;;11.07;6.25;;;;;;;11.47;53.20;101797.06;5121431;28;20526;-54
2022/04/20 01:40:07;;;;;;;11.23;7.20;;;;;;;11.44;53.43;101792.88;5214627;28;20909;-50
2022/04/20 01:42:39;;;;;;;10.70;7.35;;;;;;;11.42;53.37;101791.31;5133003;28;20443;-51
2022/04/20 01:45:12;;;;;;;9.15;7.28;;;;;;;11.37;53.57;101794.38;5134931;28;20573;-51
2022/04/20 01:47:45;;;;;;;10.60;6.70;;;;;;;11.31;53.41;101779.03;5135853;28;20788;-52
2022/04/20 01:50:17;;;;;;;12.32;6.70;;;;;;;11.24;53.43;101777.88;5129955;28;20446;-52
2022/04/20 01:52:52;;;;;;;12.75;6.85;;;;;;;11.31;53.30;101786.97;5136684;28;20433;-50
2022/04/20 01:55:24;;;;;;;9.70;7.57;;;;;;;11.26;53.35;101783.88;5131462;28;20503;-49
2022/04/20 01:57:57;;;;;;;11.85;7.32;;;;;;;11.24;53.21;101777.88;5152999;28;20917;-52
2022/04/20 02:00:30;;;;;;;11.60;7.72;;;;;;;11.31;53.22;101790.44;5143601;28;21140;-52
2022/04/20 02:03:01;;;;;;;9.95;7.10;;;;;;;11.25;53.10;101792.78;5142755;28;20433;-51
2022/04/20 02:05:33;;;;;;;14.93;7.80;;;;;;;11.23;53.03;101789.44;5169639;28;20493;-49
2022/04/20 02:08:08;;;;;;;15.18;7.97;;;;;;;11.22;53.25;101806.25;5160767;27;20521;-51
2022/04/20 02:10:40;;;;;;;11.23;7.13;;;;;;;11.16;53.00;101791.75;5168382;28;20511;-49
2022/04/20 02:13:13;;;;;;;10.30;8.00;;;;;;;11.18;53.23;101794.25;5152992;28;20506;-52
2022/04/20 02:15:45;;;;;;;11.10;7.05;;;;;;;11.17;53.18;101797.88;5157904;28;20531;-54
2022/04/20 02:18:18;;;;;;;10.25;6.70;;;;;;;11.12;53.06;101793.00;5161391;28;20440;-53
2022/04/20 02:20:52;;;;;;;12.15;7.53;;;;;;;11.14;53.32;101803.44;5171014;28;20418;-54
2022/04/20 02:23:26;;;;;;;13.70;8.45;;;;;;;11.11;53.28;101804.50;5154355;28;20983;-52
2022/04/20 02:25:59;;;;;;;10.80;7.50;;;;;;;11.03;53.36;101793.78;5180065;28;20422;-49
2022/04/20 02:28:31;;;;;;;15.63;7.93;;;;;;;11.02;53.53;101792.91;5160487;28;20924;-52
2022/04/20 02:31:04;;;;;;;9.57;7.10;;;;;;;10.97;53.59;101787.19;5165717;28;20437;-55
2022/04/20 02:33:37;;;;;;;11.07;7.80;;;;;;;10.87;53.31;101786.28;5175406;28;20433;-50
2022/04/20 02:36:11;;;;;;;11.65;7.75;;;;;;;10.95;53.32;101794.41;5140242;27;21051;-50
2022/04/20 02:38:45;;;;;;;13.10;7.38;;;;;;;10.92;53.43;101784.09;5145152;28;20438;-48
2022/04/20 02:41:17;;;;;;;11.18;7.18;;;;;;;10.90;53.58;101790.47;5171190;28;20745;-52
2022/04/20 02:43:50;;;;;;;8.93;7.13;;;;;;;10.87;53.44;101790.72;5164082;28;20460;-49
2022/04/20 02:46:23;;;;;;;11.20;7.75;;;;;;;10.84;53.56;101797.13;5184954;28;20432;-47
2022/04/20 02:48:56;;;;;;;13.20;6.43;;;;;;;10.77;53.57;101788.84;5172196;28;21097;-54
2022/04/20 02:51:28;;;;;;;11.40;7.78;;;;;;;10.75;53.48;101795.25;5157172;28;20390;-50
2022/04/20 02:54:02;;;;;;;9.60;6.30;;;;;;;10.74;53.42;101798.81;5139194;28;20454;-52
2022/04/20 02:56:35;;;;;;;11.10;6.35;;;;;;;10.72;53.60;101804.25;5177276;28;20426;-52
2022/04/20 02:59:07;;;;;;;10.88;6.35;;;;;;;10.68;53.46;101804.63;5213307;28;20820;-53
2022/04/20 03:01:40;;;;;;;11.05;6.40;;;;;;;10.61;53.71;101805.13;5211999;28;20410;-52
2022/04/20 03:04:12;;;;;;;11.15;6.93;;;;;;;10.44;53.61;101784.56;5220025;28;20555;-51
2022/04/20 03:06:45;;;;;;;11.15;6.65;;;;;;;10.51;53.72;101806.84;5208129;28;20462;-50
2022/04/20 03:09:19;;;;;;;8.13;6.20;;;;;;;10.48;53.76;101804.47;5143895;28;20482;-55
2022/04/20 03:11:51;;;;;;;8.98;5.88;;;;;;;10.42;53.67;101802.31;5217252;28;21305;-58
2022/04/20 03:14:23;;;;;;;9.75;6.53;;;;;;;10.42;53.61;101802.31;5217831;28;20408;-52
2022/04/20 03:16:56;;;;;;;9.50;7.07;;;;;;;10.37;53.64;101801.84;5221625;28;20614;-51
2022/04/20 03:19:31;;;;;;;10.80;6.50;;;;;;;10.37;53.49;101804.50;5213928;28;20401;-52
2022/04/20 03:22:04;;;;;;;11.27;6.95;;;;;;;10.31;53.59;101799.72;5216668;28;20421;-49
2022/04/20 03:24:38;;;;;;;10.20;6.32;;;;;;;10.32;53.58;101806.69;5220002;28;20430;-48
2022/04/20 03:27:11;;;;;;;8.30;6.18;;;;;;;10.28;53.44;101800.81;5223626;28;20426;-49
2022/04/20 03:29:43;;;;;;;9.18;7.05;;;;;;;10.24;53.43;101803.78;5224886;28;20419;-55
2022/04/20 03:32:17;;;;;;;11.05;6.82;;;;;;;10.20;53.26;101808.47;5227068;28;20423;-52
2022/04/20 03:34:50;;;;;;;11.15;6.82;;;;;;;10.19;53.59;101805.94;5220988;28;20512;-50
2022/04/20 03:37:22;;;;;;;9.48;7.05;;;;;;;10.17;53.36;101811.38;5221343;28;20772;-49
2022/04/20 03:39:57;;;;;;;6.83;5.90;;;;;;;10.11;53.37;101802.13;5226984;28;20416;-54
2022/04/20 03:42:29;;;;;;;7.93;6.43;;;;;;;10.10;53.39;101804.91;5161374;28;20432;-56
2022/04/20 03:45:02;;;;;;;8.55;6.00;;;;;;;10.00;53.41;101794.22;5147795;28;20422;-54
2022/04/20 03:47:37;;;;;;;8.20;6.38;;;;;;;10.07;53.19;101803.34;5132305;28;20561;-54
2022/04/20 03:50:10;;;;;;;9.88;6.13;;;;;;;10.08;53.39;101805.00;5138097;28;20797;-53
2022/04/20 03:52:43;;;;;;;8.50;6.72;;;;;;;10.06;53.20;101806.94;5135709;28;20526;-49
2022/04/20 03:55:17;;;;;;;9.40;6.85;;;;;;;10.05;53.15;101810.53;5138517;28;20511;-50
2022/04/20 03:57:49;;;;;;;10.90;6.50;;;;;;;10.04;53.05;101808.88;5122399;28;20582;-53
2022/04/20 04:00:29;;;;;;;9.65;7.00;;;;;;;10.00;53.03;101802.13;5133381;28;20418;-51
2022/04/20 04:03:02;;;;;;;9.25;6.70;;;;;;;9.87;53.13;101807.56;5134550;28;20413;-52
2022/04/20 04:05:34;;;;;;;10.45;6.68;;;;;;;9.98;53.08;101814.63;5163169;28;20431;-55
2022/04/20 04:08:07;;;;;;;8.88;7.43;;;;;;;9.68;53.15;101770.41;5150206;28;20813;-50
2022/04/20 04:10:41;;;;;;;8.52;6.85;;;;;;;9.95;53.03;101819.31;5179801;28;20428;-51
2022/04/20 04:13:14;;;;;;;8.95;6.65;;;;;;;9.93;53.15;101817.63;5217562;28;20425;-53
2022/04/20 04:15:49;;;;;;;7.75;6.85;;;;;;;9.82;53.07;101836.13;5217739;28;20771;-52
2022/04/20 04:18:22;;;;;;;9.75;6.53;;;;;;;9.87;53.33;101817.28;5170563;28;20793;-48
2022/04/20 04:20:54;;;;;;;8.45;6.65;;;;;;;9.86;53.07;101831.44;5197390;28;20491;-48
2022/04/20 04:23:27;;;;;;;10.55;7.47;;;;;;;9.67;53.24;101806.50;5149153;28;20421;-53
2022/04/20 04:26:01;;;;;;;9.35;7.13;;;;;;;9.80;53.10;101824.84;5149155;28;20417;-51
2022/04/20 04:28:33;;;;;;;9.93;6.85;;;;;;;9.70;53.29;101819.44;5213735;28;20429;-46
2022/04/20 04:31:05;;;;;;;8.80;7.43;;;;;;;9.73;53.47;101826.28;5214142;28;20427;-52
2022/04/20 04:33:38;;;;;;;10.60;6.97;;;;;;;9.68;53.36;101833.72;5159788;28;20882;-49
2022/04/20 04:36:11;;;;;;;8.18;6.35;;;;;;;9.72;53.27;101840.41;5124452;28;20963;-53
2022/04/20 04:38:44;;;;;;;8.23;6.55;;;;;;;9.54;53.56;101828.66;5171236;28;20877;-51
2022/04/20 04:41:17;;;;;;;14.40;6.40;;;;;;;9.47;53.49;101801.94;5206458;28;20427;-52
2022/04/20 04:43:50;;;;;;;11.10;7.07;;;;;;;9.63;53.73;101836.72;5212769;28;21468;-49
2022/04/20 04:49:12;;;;;;;12.32;7.20;;;;;;;9.66;53.45;101847.03;5152211;28;20435;-49
2022/04/20 04:51:45;;;;;;;11.65;7.20;;;;;;;9.65;53.62;101845.34;5125034;28;20523;-48
2022/04/20 04:54:17;;;;;;;8.25;6.70;;;;;;;9.64;53.39;101833.13;5202678;28;21674;-55
2022/04/20 04:56:52;;;;;;;10.40;7.45;;;;;;;9.72;53.41;101834.31;5131886;28;20493;-49
2022/04/20 04:59:24;;;;;;;9.80;7.45;;;;;;;9.69;53.63;101830.09;5138239;28;20705;-49
2022/04/20 05:01:57;;;;;;;11.02;6.60;;;;;;;9.77;53.33;101840.91;5200466;28;20840;-47
2022/04/20 05:04:30;;;;;;;7.22;6.50;;;;;;;9.78;53.41;101839.09;5131244;28;20435;-49
2022/04/20 05:07:03;;;;;;;9.13;6.65;;;;;;;9.82;53.21;101853.75;5137878;28;20426;-48
2022/04/20 05:09:36;;;;;;;11.80;8.00;;;;;;;9.85;53.53;101850.88;5141083;28;20858;-51
2022/04/20 05:12:11;;;;;;;9.60;7.25;;;;;;;9.56;53.33;101811.75;5138131;28;21074;-52
2022/04/20 05:14:44;;;;;;;11.38;6.72;;;;;;;9.87;53.17;101854.22;5139993;28;20466;-50
2022/04/20 05:17:17;;;;;;;10.70;7.03;;;;;;;9.86;53.01;101842.81;5142284;28;20470;-53
2022/04/20 05:19:49;;;;;;;8.23;6.17;;;;;;;9.82;53.27;101832.66;5138235;28;20423;-51
2022/04/20 05:22:22;;;;;;;10.55;6.50;;;;;;;9.90;53.27;101857.44;5136973;28;20419;-53
2022/04/20 05:24:54;;;;;;;9.20;6.40;;;;;;;9.98;53.25;101859.50;5141177;28;20491;-52
2022/04/20 05:27:28;;;;;;;9.35;6.25;;;;;;;9.94;53.10;101855.44;5229612;27;20781;-49
2022/04/20 05:30:01;;;;;;;8.38;6.10;;;;;;;9.96;53.32;101857.94;5212784;28;20535;-48
2022/04/20 05:32:33;;;;;;;6.80;5.50;;;;;;;9.87;53.20;101844.50;5138230;28;20454;-49
2022/04/20 05:35:15;;;;;;;6.82;6.13;;;;;;;10.00;53.33;101868.13;5165221;28;20415;-54
2022/04/20 05:43:30;;;;;;;7.15;5.60;;;;;;;9.73;53.43;101830.72;5117558;28;20423;-45
2022/04/20 05:46:03;;;;;;;7.05;5.32;;;;;;;10.13;53.38;101882.03;5127255;28;20455;-51
2022/04/20 05:48:36;;;;;;;11.50;6.90;;;;;;;10.20;52.94;101885.03;5132324;28;20982;-52
2022/04/20 05:51:09;;;;;;;8.37;5.43;;;;;;;10.29;53.04;101880.88;5129133;28;20444;-49
2022/04/20 05:53:42;;;;;;;7.43;5.70;;;;;;;10.33;53.09;101877.00;5115371;28;20814;-53
2022/04/20 05:56:14;;;;;;;7.00;5.20;;;;;;;10.35;52.84;101885.66;5155351;28;21585;-55
2022/04/20 05:58:50;;;;;;;9.20;5.28;;;;;;;10.38;52.99;101885.41;5103645;28;20439;-52
2022/04/20 06:01:24;;;;;;;5.95;5.00;;;;;;;10.75;52.54;101882.44;5105761;28;20433;-56
2022/04/20 06:03:57;;;;;;;9.20;4.82;;;;;;;12.27;51.19;101877.50;5103585;28;20422;-54
2022/04/20 06:06:29;;;;;;;7.65;4.43;;;;;;;13.87;49.51;101884.97;5098382;28;20837;-47
2022/04/20 06:09:02;;;;;;;6.60;4.60;;;;;;;15.10;48.37;101864.06;5097854;28;20934;-54
2022/04/20 06:11:34;;;;;;;7.53;4.20;;;;;;;16.11;47.22;101863.50;5108548;28;20437;-53
2022/04/20 06:14:08;;;;;;;7.10;3.95;;;;;;;17.30;46.00;101871.19;5101476;28;20433;-52
2022/04/20 06:16:41;;;;;;;5.55;3.80;;;;;;;18.24;44.75;101866.06;5091458;28;20434;-48
2022/04/20 06:19:31;;;;;;;7.65;3.80;;;;;;;18.78;43.88;101856.22;5098482;28;20519;-50
2022/04/20 06:22:04;;;;;;;12.07;3.72;;;;;;;19.49;43.29;101872.00;5077807;28;20928;-53
2022/04/20 06:24:37;;;;;;;5.40;3.47;;;;;;;20.21;42.01;101852.56;5128403;28;20427;-50
2022/04/20 06:27:09;;;;;;;5.90;3.97;;;;;;;20.68;41.06;101878.88;5134508;28;20909;-51
2022/04/20 06:29:43;;;;;;;7.07;3.33;;;;;;;20.90;40.69;101862.78;5126331;28;20913;-55
2022/04/20 06:32:18;;;;;;;7.75;3.22;;;;;;;21.34;39.97;101850.94;5101432;28;20576;-56
2022/04/20 06:34:51;;;;;;;7.05;3.28;;;;;;;21.58;39.54;101865.78;5102266;28;20461;-53
2022/04/20 06:37:25;;;;;;;11.13;3.33;;;;;;;21.88;39.01;101869.88;5108659;28;20481;-54
2022/04/20 06:39:57;;;;;;;6.45;3.28;;;;;;;22.28;38.25;101861.19;5118323;28;20542;-54
2022/04/20 06:42:30;;;;;;;4.43;3.25;;;;;;;23.17;37.14;101868.16;5113085;28;20492;-51
2022/04/20 06:45:07;;;;;;;5.07;3.05;;;;;;;23.77;36.16;101865.38;5116331;28;20500;-51
2022/04/20 06:47:43;;;;;;;4.80;3.22;;;;;;;24.04;35.79;101866.13;5102878;28;20432;-52
2022/04/20 06:50:16;;;;;;;6.35;3.40;;;;;;;23.84;35.59;101876.97;5118394;28;20825;-54
2022/04/20 06:58:38;;;;;;;5.65;3.40;;;;;;;25.61;33.26;101877.03;5131002;28;20416;-53
2022/04/20 07:01:14;;;;;;;4.57;2.80;;;;;;;25.83;33.08;101866.59;5160493;28;20456;-54
2022/04/20 07:03:49;;;;;;;6.50;2.83;;;;;;;26.53;32.40;101858.81;5127376;28;20845;-55
2022/04/20 07:06:22;;;;;;;6.67;3.80;;;;;;;26.92;31.84;101872.00;5139661;28;20426;-54
2022/04/20 07:08:54;;;;;;;5.87;3.10;;;;;;;26.88;31.63;101887.88;5140456;28;20446;-54
2022/04/20 07:11:28;;;;;;;4.63;2.70;;;;;;;26.42;31.75;101883.97;5161322;28;20825;-52
2022/04/20 07:14:00;;;;;;;6.33;2.93;;;;;;;25.87;32.09;101882.19;5122693;28;20567;-52
2022/04/20 07:16:34;;;;;;;5.50;3.20;;;;;;;25.41;32.08;101882.66;5130275;28;20503;-55
2022/04/20 07:19:07;;;;;;;4.57;2.70;;;;;;;25.05;32.16;101851.75;5138241;28;20510;-54
2022/04/20 07:21:39;;;;;;;6.67;3.20;;;;;;;25.22;32.01;101885.31;5131409;28;20512;-53
2022/04/20 07:24:12;;;;;;;5.43;2.90;;;;;;;25.34;31.88;101881.91;5163601;28;20425;-51
2022/04/20 07:26:44;;;;;;;5.53;2.92;;;;;;;26.00;31.08;101892.00;5148340;28;20427;-53
2022/04/20 07:29:17;;;;;;;5.80;3.20;;;;;;;25.79;31.12;101873.50;5132055;28;20471;-55
2022/04/20 07:31:51;;;;;;;4.32;2.78;;;;;;;25.19;31.50;101888.47;5131895;28;20426;-54
2022/04/20 07:34:23;;;;;;;9.18;2.95;;;;;;;24.58;31.78;101870.19;5141358;28;20502;-53
2022/04/20 07:36:56;;;;;;;6.60;3.70;;;;;;;24.76;31.71;101886.50;5120762;28;20428;-53
2022/04/20 07:39:28;;;;;;;3.65;2.90;;;;;;;24.65;31.77;101889.88;5120872;28;21032;-54
2022/04/20 07:42:01;;;;;;;6.87;3.03;;;;;;;23.93;32.24;101876.50;5124136;28;20421;-55
2022/04/20 07:44:33;;;;;;;6.43;2.90;;;;;;;23.72;32.31;101874.09;5130183;28;20466;-49
2022/04/20 07:47:07;;;;;;;4.60;2.88;;;;;;;23.81;32.22;101889.00;5136109;28;20470;-51
2022/04/20 07:52:30;;;;;;;6.43;2.80;;;;;;;23.95;31.98;101878.19;5139176;28;20391;-58
2022/04/20 07:55:02;;;;;;;4.53;2.55;;;;;;;23.85;32.06;101889.44;5139406;28;20522;-55
2022/04/20 07:57:35;;;;;;;5.18;2.88;;;;;;;23.77;32.21;101879.69;5193655;28;20442;-54
2022/04/20 08:00:10;;;;;;;5.53;2.67;;;;;;;24.11;31.93;101893.88;5147225;28;20425;-55
2022/04/20 08:02:44;;;;;;;6.22;2.88;;;;;;;24.41;31.41;101904.16;5150539;28;20467;-53
2022/04/20 08:05:20;;;;;;;4.80;2.33;;;;;;;24.45;31.50;101892.72;5128471;28;20431;-53
2022/04/20 08:07:52;;;;;;;6.28;2.90;;;;;;;24.21;31.65;101891.56;5139272;28;20411;-53
2022/04/20 08:10:25;;;;;;;4.73;2.83;;;;;;;23.91;31.85;101856.22;5150376;28;20489;-52
2022/04/20 08:12:57;;;;;;;4.97;3.05;;;;;;;24.19;31.71;101899.06;5130751;28;20426;-51
2022/04/20 08:15:30;;;;;;;4.75;3.10;;;;;;;23.69;32.03;101893.38;5120529;28;20880;-55
2022/04/20 08:18:04;;;;;;;5.35;3.10;;;;;;;23.29;32.42;101890.75;5126659;28;20499;-52
2022/04/20 08:20:36;;;;;;;5.82;2.92;;;;;;;22.38;33.01;101807.78;5144272;28;20826;-56
2022/04/20 08:23:08;;;;;;;5.05;3.38;;;;;;;22.22;33.32;101905.88;5107067;28;20564;-54
2022/04/20 08:25:42;;;;;;;6.70;2.97;;;;;;;21.58;33.92;101898.03;5113491;28;20812;-52
2022/04/20 08:28:15;;;;;;;3.63;2.90;;;;;;;21.25;34.21;101905.84;5124216;28;20434;-55
2022/04/20 08:30:50;;;;;;;5.50;2.90;;;;;;;20.96;34.43;101910.34;5128172;28;20946;-54
2022/04/20 08:33:24;;;;;;;7.88;3.10;;;;;;;20.82;34.41;101913.94;5127817;28;20752;-54
2022/04/20 08:35:56;;;;;;;8.57;3.53;;;;;;;20.67;34.41;101916.66;5128733;28;20435;-53
2022/04/20 08:38:36;;;;;;;5.83;2.87;;;;;;;20.38;34.59;101906.84;5125206;28;20539;-48
2022/04/20 08:41:12;;;;;;;7.70;3.33;;;;;;;20.09;34.78;101913.88;5127197;28;20426;-55
2022/04/20 08:43:45;;;;;;;5.05;2.95;;;;;;;20.01;34.87;101916.69;5110372;28;20502;-57
2022/04/20 08:46:20;;;;;;;4.10;3.45;;;;;;;19.90;34.83;101898.38;5108182;28;22424;-54
2022/04/20 08:48:54;;;;;;;4.22;3.10;;;;;;;19.70;34.83;101911.50;5099413;28;20424;-53
2022/04/20 08:52:37;;;;;;;4.63;3.50;;;;;;;19.18;35.27;101910.44;5114846;28;20459;-52
2022/04/20 08:54:22;;;;;;;7.35;3.60;;;;;;;18.61;35.62;101916.16;5102394;28;20990;-53
2022/04/20 08:59:45;;;;;;;11.45;3.83;;;;;;;17.92;35.87;101919.50;5124533;28;20444;-52
2022/04/20 09:02:18;;;;;;;4.18;3.38;;;;;;;17.84;35.78;101914.19;5123414;28;20920;-53
2022/04/20 09:04:53;;;;;;;4.60;3.22;;;;;;;17.90;35.48;101910.81;5129759;28;26365;-51
2022/04/20 09:07:26;;;;;;;4.57;3.40;;;;;;;17.82;35.60;101913.50;5178770;28;20432;-52
2022/04/20 09:09:58;;;;;;;6.35;3.95;;;;;;;17.46;35.61;101879.16;5131491;28;20463;-51
2022/04/20 09:12:31;;;;;;;7.75;3.80;;;;;;;17.33;35.73;101892.19;5144199;28;20404;-52
2022/04/20 09:15:05;;;;;;;7.35;3.80;;;;;;;17.19;35.90;101928.44;5193699;28;20424;-53
2022/04/20 09:17:44;;;;;;;6.83;4.27;;;;;;;16.87;36.00;101901.69;5200779;28;20464;-51
2022/04/20 09:20:21;;;;;;;4.40;3.67;;;;;;;16.23;36.23;101837.38;5126076;28;20525;-50
2022/04/20 09:23:01;;;;;;;8.60;3.53;;;;;;;16.50;36.31;101902.94;5175906;28;20423;-50
2022/04/20 09:25:36;;;;;;;7.43;3.80;;;;;;;16.42;36.47;101892.25;5124426;28;20436;-50
2022/04/20 09:28:09;;;;;;;7.40;3.67;;;;;;;16.66;36.00;101883.47;5120857;28;20428;-52
2022/04/20 09:30:43;;;;;;;6.90;3.75;;;;;;;16.92;35.87;101900.22;5129352;28;20777;-55
2022/04/20 09:33:16;;;;;;;5.53;3.40;;;;;;;16.94;35.77;101892.88;5182007;27;20738;-53
2022/04/20 09:35:53;;;;;;;8.50;3.70;;;;;;;17.10;35.75;101908.06;5166697;28;20439;-54
2022/04/20 09:38:25;;;;;;;8.07;3.78;;;;;;;17.33;35.67;101913.56;5191408;28;20879;-53
2022/04/20 09:41:08;;;;;;;5.47;3.55;;;;;;;17.46;35.32;101895.19;5130374;27;20433;-51
2022/04/20 09:43:40;;;;;;;6.70;3.80;;;;;;;17.31;35.57;101878.16;5187735;28;20400;-53
2022/04/20 09:49:09;;;;;;;7.18;4.13;;;;;;;17.31;35.54;101896.03;5131857;28;20414;-46
2022/04/20 09:51:44;;;;;;;6.97;3.95;;;;;;;17.31;35.56;101910.22;5130779;28;20468;-50
2022/04/20 09:54:27;;;;;;;8.43;4.40;;;;;;;17.32;35.41;101893.22;5167660;28;20586;-54
2022/04/20 09:57:13;;;;;;;6.63;4.00;;;;;;;17.52;35.33;101905.19;5122891;28;20417;-50
2022/04/20 09:59:58;;;;;;;10.18;4.55;;;;;;;17.61;35.47;101883.81;5126049;28;20523;-51
2022/04/20 10:02:30;;;;;;;7.00;3.83;;;;;;;17.89;35.03;101903.78;5120633;28;20415;-57
2022/04/20 10:05:05;;;;;;;9.45;4.03;;;;;;;17.90;35.14;101864.53;5132837;28;20922;-54
2022/04/20 10:07:39;;;;;;;4.55;3.33;;;;;;;17.95;35.20;101896.94;5128353;28;20433;-53
2022/04/20 10:10:12;;;;;;;5.75;3.92;;;;;;;17.64;35.26;101896.81;5121709;28;20480;-54
2022/04/20 10:12:46;;;;;;;6.23;3.73;;;;;;;17.37;35.36;101877.50;5125835;28;20451;-49
2022/04/20 10:18:10;;;;;;;7.28;3.90;;;;;;;16.99;35.80;101879.88;5125139;28;20407;-53
2022/04/20 10:20:46;;;;;;;7.90;4.07;;;;;;;16.88;35.85;101872.22;5166200;28;20418;-52
2022/04/20 10:23:22;;;;;;;8.50;4.47;;;;;;;16.82;35.94;101832.84;5151153;28;20434;-53
2022/04/20 10:25:58;;;;;;;9.17;4.13;;;;;;;16.98;35.98;101840.84;5143352;28;20986;-51
2022/04/20 10:28:37;;;;;;;6.43;3.75;;;;;;;17.17;35.99;101870.88;5123843;28;20416;-54
2022/04/20 10:31:20;;;;;;;9.25;4.10;;;;;;;17.16;35.97;101869.22;5124700;28;20997;-52
2022/04/20 10:33:53;;;;;;;6.50;3.88;;;;;;;17.16;36.19;101871.88;5130081;28;20864;-51
2022/04/20 10:36:30;;;;;;;5.83;4.10;;;;;;;17.06;35.97;101866.69;5135358;28;20832;-53
2022/04/20 10:39:22;;;;;;;5.75;3.80;;;;;;;17.04;36.20;101876.72;5178377;28;20449;-54
2022/04/20 10:42:21;;;;;;;6.67;3.50;;;;;;;17.15;35.78;101876.34;5128268;28;20497;-52
2022/04/20 10:45:04;;;;;;;8.30;4.07;;;;;;;17.21;35.70;101846.31;5126043;28;20475;-54
2022/04/20 10:47:40;;;;;;;5.63;3.63;;;;;;;17.52;35.57;101857.09;5174080;28;20599;-48
2022/04/20 10:50:19;;;;;;;6.20;3.65;;;;;;;17.54;35.52;101856.94;5127996;28;20497;-55
2022/04/20 10:52:58;;;;;;;10.02;3.95;;;;;;;17.45;35.47;101839.28;5132629;28;20424;-55
2022/04/20 10:55:53;;;;;;;7.00;3.67;;;;;;;17.59;35.23;101859.09;5172750;28;20422;-55
2022/04/20 10:58:26;;;;;;;5.63;3.57;;;;;;;17.66;35.21;101854.75;5128490;28;20922;-51
2022/04/20 11:01:11;;;;;;;5.43;3.80;;;;;;;17.78;35.01;101853.41;5189317;28;20424;-51
2022/04/20 11:04:04;;;;;;;12.02;3.60;;;;;;;17.89;34.76;101845.00;5126577;28;20430;-53
2022/04/20 11:07:15;;;;;;;3.20;2.67;;;;;;;17.86;34.63;101848.03;5134238;28;20438;-52
2022/04/20 11:09:49;;;;;;;4.60;2.60;;;;;;;17.70;34.85;101835.53;5139682;28;20435;-53
2022/04/20 11:19:05;;;;;;;6.40;3.50;;;;;;;17.54;34.74;101830.25;5135174;28;20430;-54
2022/04/20 11:21:53;;;;;;;5.07;3.03;;;;;;;17.37;34.54;101797.38;5126293;27;20899;-53
2022/04/20 11:24:30;;;;;;;4.22;2.58;;;;;;;17.62;34.31;101816.88;5133649;28;20411;-50
2022/04/20 11:27:03;;;;;;;5.63;2.70;;;;;;;17.69;34.27;101798.31;5132219;28;20926;-53
2022/04/20 11:29:35;;;;;;;3.72;2.80;;;;;;;17.78;33.95;101802.66;5130425;28;20410;-51
2022/04/20 11:32:09;;;;;;;3.63;2.28;;;;;;;17.81;33.82;101799.63;5125029;28;20436;-54
2022/04/20 11:34:43;;;;;;;5.32;3.08;;;;;;;17.82;33.70;101800.44;5131745;28;20566;-51
2022/04/20 11:37:17;;;;;;;3.38;2.10;;;;;;;17.62;33.73;101794.63;5139899;28;20517;-51
2022/04/20 11:39:49;;;;;;;5.38;2.38;;;;;;;17.51;33.51;101782.50;5125112;28;20448;-52
2022/04/20 11:42:22;;;;;;;2.72;2.08;;;;;;;17.79;33.30;101806.16;5129559;27;20504;-53
2022/04/20 11:44:54;;;;;;;2.47;2.00;;;;;;;17.80;33.23;101797.94;5123271;28;20532;-55
2022/04/20 11:47:27;;;;;;;5.95;2.30;;;;;;;17.91;33.03;101800.25;5128264;28;20445;-55
2022/04/20 11:50:02;;;;;;;4.75;2.22;;;;;;;17.80;33.00;101776.56;5126881;28;20489;-55
2022/04/20 11:52:34;;;;;;;3.38;2.53;;;;;;;17.84;32.79;101783.25;5148106;28;20845;-51
2022/04/20 11:55:09;;;;;;;5.10;2.47;;;;;;;17.90;32.64;101782.53;5191572;28;20520;-57
2022/04/20 11:57:42;;;;;;;6.95;2.20;;;;;;;18.02;32.42;101787.47;5129111;28;20424;-53
2022/04/20 12:00:18;;;;;;;3.63;2.08;;;;;;;17.97;32.53;101777.31;5136477;28;20438;-51
2022/04/20 12:02:50;;;;;;;4.20;2.10;;;;;;;18.00;32.57;101776.16;5129906;28;20427;-53
2022/04/20 12:05:24;;;;;;;4.13;2.22;;;;;;;18.19;32.40;101775.69;5131320;28;20422;-52
2022/04/20 12:07:57;;;;;;;3.67;1.77;;;;;;;18.26;32.38;101787.34;5127775;28;20980;-52
2022/04/20 12:10:32;;;;;;;10.17;3.03;;;;;;;18.07;32.40;101775.25;5136433;28;20418;-54
2022/04/20 12:13:05;;;;;;;2.60;1.90;;;;;;;17.94;32.43;101775.84;5125726;28;20507;-49
2022/04/20 12:15:38;;;;;;;9.50;2.30;;;;;;;17.84;32.58;101777.03;5126850;28;20433;-52
2022/04/20 12:18:10;;;;;;;4.90;2.28;;;;;;;17.72;32.58;101760.56;5130137;28;20946;-52
2022/04/20 12:20:49;;;;;;;4.50;2.88;;;;;;;17.68;32.64;101756.56;5126406;28;20439;-55
2022/04/20 12:23:21;;;;;;;3.95;2.15;;;;;;;17.71;32.48;101764.22;5124593;28;20423;-54
2022/04/20 12:25:54;;;;;;;2.80;2.00;;;;;;;17.77;32.50;101766.22;5132580;28;20436;-55
2022/04/20 12:28:36;;;;;;;4.47;2.72;;;;;;;17.90;32.22;101763.84;5126890;28;20579;-48